EVRA

Riga International Airport

Riga, Latvia
METAR EVRA 182320Z 23003KT 190V270 CAVOK 16/15 Q1017 NOSIG
Observed Flight Rules
Aug-18 @ 23:20 UTC (27 minutes ago) Visual Flight Rules
Wind Visibility Clouds
230° at 3 knots 10,000+ meters
  • Clear skies
Temperatures Readings
Current 16°C / 61°F
Dewpoint 15°C / 59°F
Humidity 94%
Altimeter 30.03" Hg
Pressure 1017 hPa
Elevation 10
METAR EVRA 182320Z 23003KT 190V270 CAVOK 16/15 Q1017 NOSIG
Observed Flight Rules
Aug-18 @ 23:20 UTC
(27 minutes ago)
VFR
Wind Visibility
230° at 3 knots 10,000+ meters
Clouds
  • Clear skies
Temperature Dewpoint
16°C / 61°F 15°C / 59°F
Humidity Altimeter Pressure
94% 30.03" Hg 1017 hPa